createdAt,value
2019-03-13T00:02:29.072Z,2.30
2019-03-13T00:05:04.157Z,2.40
2019-03-13T00:07:34.776Z,2.37
2019-03-13T00:10:05.644Z,2.40
2019-03-13T00:12:37.681Z,2.83
2019-03-13T00:15:09.228Z,2.87
2019-03-13T00:17:39.598Z,2.50
2019-03-13T00:20:10.143Z,3.60
2019-03-13T00:22:41.727Z,2.63
2019-03-13T00:25:13.403Z,2.13
2019-03-13T00:27:44.064Z,1.90
2019-03-13T00:30:15.581Z,2.13
2019-03-13T00:32:47.502Z,2.43
2019-03-13T00:35:20.201Z,1.83
2019-03-13T00:37:50.777Z,2.60
2019-03-13T00:40:22.506Z,2.17
2019-03-13T00:42:53.254Z,2.53
2019-03-13T00:45:23.653Z,2.67
2019-03-13T00:47:57.388Z,2.33
2019-03-13T00:50:31.856Z,2.30
2019-03-13T00:53:02.255Z,3.33
2019-03-13T00:55:32.643Z,2.60
2019-03-13T00:58:03.122Z,3.03
2019-03-13T01:00:50.432Z,3.03
2019-03-13T01:03:36.533Z,3.63
2019-03-13T01:06:12.596Z,5.40
2019-03-13T01:08:43.014Z,4.47
2019-03-13T01:11:13.478Z,3.17
2019-03-13T01:13:44.074Z,3.33
2019-03-13T01:16:14.396Z,3.20
2019-03-13T01:18:44.751Z,3.90
2019-03-13T01:21:15.279Z,3.80
2019-03-13T01:23:45.643Z,3.83
2019-03-13T01:26:15.938Z,3.13
2019-03-13T01:28:46.264Z,4.13
2019-03-13T01:31:35.223Z,3.37
2019-03-13T01:34:24.598Z,4.20
2019-03-13T01:36:55.174Z,3.90
2019-03-13T01:39:25.485Z,4.60
2019-03-13T01:41:55.954Z,4.80
2019-03-13T01:44:26.326Z,5.03
2019-03-13T01:46:59.091Z,3.83
2019-03-13T01:49:30.028Z,4.13
2019-03-13T01:52:00.458Z,4.67
2019-03-13T01:54:30.981Z,4.67
2019-03-13T01:57:01.426Z,4.60
2019-03-13T01:59:33.022Z,4.33
2019-03-13T02:02:03.907Z,3.93
2019-03-13T02:04:34.592Z,4.63
2019-03-13T02:07:05.334Z,4.00
2019-03-13T02:09:35.881Z,5.13
2019-03-13T02:12:06.159Z,4.60
2019-03-13T02:14:36.539Z,5.20
2019-03-13T02:17:07.644Z,4.80
2019-03-13T02:19:38.203Z,5.77
2019-03-13T02:22:08.793Z,6.07
2019-03-13T02:24:39.303Z,6.53
2019-03-13T02:27:09.774Z,5.93
2019-03-13T02:29:40.498Z,6.00
2019-03-13T02:32:10.995Z,7.07
2019-03-13T02:34:43.081Z,6.87
2019-03-13T02:37:19.324Z,7.33
2019-03-13T02:39:50.167Z,6.03
2019-03-13T02:42:20.665Z,6.83
2019-03-13T02:44:51.144Z,6.63
2019-03-13T02:47:21.605Z,6.93
2019-03-13T02:49:52.056Z,6.53
2019-03-13T02:52:24.674Z,7.50
2019-03-13T02:54:55.199Z,8.10
2019-03-13T02:57:25.939Z,7.27
2019-03-13T02:59:56.412Z,8.07
2019-03-13T03:02:48.456Z,7.37
2019-03-13T03:05:19.010Z,9.83
2019-03-13T03:07:49.649Z,8.80
2019-03-13T03:10:20.027Z,8.97
2019-03-13T03:12:50.639Z,9.23
2019-03-13T03:15:21.183Z,9.27
2019-03-13T03:17:51.576Z,9.50
2019-03-13T03:20:22.452Z,8.97
2019-03-13T03:22:53.004Z,8.30
2019-03-13T03:25:23.453Z,7.53
2019-03-13T03:27:54.128Z,8.40
2019-03-13T03:30:24.556Z,7.57
2019-03-13T03:32:57.260Z,7.33
2019-03-13T03:35:28.179Z,8.00
2019-03-13T03:37:58.590Z,7.97
2019-03-13T03:40:29.462Z,8.30
2019-03-13T03:42:59.952Z,9.47
2019-03-13T03:45:30.693Z,7.50
2019-03-13T03:48:01.264Z,8.07
2019-03-13T03:50:31.869Z,7.10
2019-03-13T03:53:02.351Z,8.13
2019-03-13T03:55:33.040Z,6.73
2019-03-13T03:58:03.435Z,7.13
2019-03-13T04:00:36.158Z,6.17
2019-03-13T04:03:07.311Z,6.60
2019-03-13T04:05:37.799Z,5.53
2019-03-13T04:08:08.195Z,5.50
2019-03-13T04:10:39.041Z,6.40
2019-03-13T04:13:09.441Z,6.37
2019-03-13T04:15:40.119Z,5.97
2019-03-13T04:18:10.588Z,5.90
2019-03-13T04:20:41.073Z,6.43
2019-03-13T04:23:11.461Z,5.30
2019-03-13T04:25:41.989Z,4.47
2019-03-13T04:28:12.565Z,3.93
2019-03-13T04:30:43.202Z,4.10
2019-03-13T04:33:13.526Z,4.57
2019-03-13T04:35:44.061Z,4.27
2019-03-13T04:38:14.618Z,2.70
2019-03-13T04:40:44.976Z,3.73
2019-03-13T04:43:15.333Z,3.50
2019-03-13T04:45:48.754Z,3.00
2019-03-13T04:48:19.387Z,4.20
2019-03-13T04:50:49.893Z,3.83
2019-03-13T04:53:20.330Z,4.90
2019-03-13T04:55:52.498Z,3.20
2019-03-13T04:58:23.008Z,4.57
2019-03-13T05:00:53.509Z,3.03
2019-03-13T05:03:24.039Z,4.00
2019-03-13T05:06:04.325Z,3.80
2019-03-13T05:09:08.770Z,2.93
2019-03-13T05:11:39.718Z,4.00
2019-03-13T05:14:10.208Z,4.07
2019-03-13T05:16:40.593Z,3.77
2019-03-13T05:19:12.793Z,5.33
2019-03-13T05:21:43.218Z,3.67
2019-03-13T05:24:13.587Z,3.97
2019-03-13T05:26:45.756Z,4.10
2019-03-13T05:29:16.573Z,4.13
2019-03-13T05:31:47.030Z,3.50
2019-03-13T05:34:18.179Z,4.37
2019-03-13T05:36:49.680Z,4.30
2019-03-13T05:39:20.296Z,3.87
2019-03-13T05:41:50.877Z,5.07
2019-03-13T05:44:21.408Z,4.40
2019-03-13T05:46:51.909Z,4.03
2019-03-13T05:49:22.271Z,3.40
2019-03-13T05:51:52.840Z,3.93
2019-03-13T05:54:23.565Z,3.70
2019-03-13T05:56:53.996Z,2.90
2019-03-13T05:59:24.583Z,4.58
2019-03-13T06:01:55.055Z,3.40
2019-03-13T06:04:25.640Z,4.23
2019-03-13T06:06:56.714Z,3.67
2019-03-13T06:09:28.845Z,3.47
2019-03-13T06:11:59.708Z,3.53
2019-03-13T06:14:30.935Z,3.30
2019-03-13T06:17:01.698Z,2.77
2019-03-13T06:19:32.429Z,3.53
2019-03-13T06:22:03.011Z,3.07
2019-03-13T06:24:33.655Z,3.93
2019-03-13T06:27:04.348Z,3.83
2019-03-13T06:29:35.069Z,3.80
2019-03-13T06:32:05.878Z,2.67
2019-03-13T06:34:36.675Z,3.50
2019-03-13T06:37:07.145Z,3.77
2019-03-13T06:39:40.424Z,6.27
2019-03-13T06:42:15.411Z,3.07
2019-03-13T06:44:45.848Z,4.67
2019-03-13T06:47:16.594Z,4.03
2019-03-13T06:49:47.719Z,3.23
2019-03-13T06:52:18.242Z,3.70
2019-03-13T06:54:49.200Z,3.60
2019-03-13T06:57:20.091Z,3.90
2019-03-13T07:00:09.666Z,3.77
2019-03-13T07:03:08.479Z,5.00
2019-03-13T07:05:56.797Z,3.90
2019-03-13T07:08:45.266Z,3.90
2019-03-13T07:11:36.403Z,4.03
2019-03-13T07:14:24.760Z,4.37
2019-03-13T07:17:07.991Z,4.67
2019-03-13T07:20:09.460Z,4.27
2019-03-13T07:22:58.320Z,3.40
2019-03-13T07:25:38.067Z,4.33
2019-03-13T07:28:29.345Z,3.83
2019-03-13T07:31:19.852Z,4.50
2019-03-13T07:34:08.636Z,4.17
2019-03-13T07:36:57.399Z,4.00
2019-03-13T07:39:45.943Z,4.03
2019-03-13T07:42:38.811Z,2.90
2019-03-13T07:45:29.395Z,4.17
2019-03-13T07:48:07.658Z,6.00
2019-03-13T07:51:15.452Z,4.70
2019-03-13T07:54:07.660Z,3.43
2019-03-13T07:57:03.182Z,3.37
2019-03-13T08:00:05.280Z,4.57
2019-03-13T08:02:55.476Z,3.63
2019-03-13T08:05:44.711Z,3.57
2019-03-13T08:08:34.390Z,3.40
2019-03-13T08:11:36.411Z,3.53
2019-03-13T08:14:28.450Z,3.73
2019-03-13T08:17:16.379Z,3.63
2019-03-13T08:19:57.949Z,2.83
2019-03-13T08:22:50.681Z,4.00
2019-03-13T08:25:39.886Z,3.00
2019-03-13T08:28:24.860Z,4.03
2019-03-13T08:31:14.435Z,3.63
2019-03-13T08:34:04.269Z,4.00
2019-03-13T08:36:55.696Z,2.63
2019-03-13T08:39:51.243Z,2.97
2019-03-13T08:42:31.692Z,3.73
2019-03-13T08:45:27.140Z,3.63
2019-03-13T08:48:14.401Z,3.57
2019-03-13T08:51:02.861Z,3.43
2019-03-13T08:53:58.876Z,2.40
2019-03-13T08:56:48.800Z,3.37
2019-03-13T09:00:03.600Z,3.00
2019-03-13T09:02:51.985Z,3.10
2019-03-13T09:05:45.042Z,3.30
2019-03-13T09:08:35.749Z,3.23
2019-03-13T09:11:23.519Z,3.53
2019-03-13T09:14:16.402Z,2.83
2019-03-13T09:19:51.786Z,4.23
2019-03-13T09:22:31.426Z,4.27
2019-03-13T09:25:21.105Z,3.43
2019-03-13T09:28:14.481Z,2.83
2019-03-13T09:31:13.664Z,2.93
2019-03-13T09:34:11.814Z,3.30
2019-03-13T09:37:01.567Z,3.77
2019-03-13T09:39:54.641Z,3.40
2019-03-13T09:42:46.497Z,2.50
2019-03-13T09:45:35.239Z,3.00
2019-03-13T09:48:37.086Z,3.50
2019-03-13T09:51:17.616Z,3.40
2019-03-13T09:54:16.191Z,3.70
2019-03-13T09:57:04.215Z,6.60
2019-03-13T09:59:47.124Z,4.00
2019-03-13T10:02:55.570Z,3.03
2019-03-13T10:05:43.630Z,4.50
2019-03-13T10:08:35.145Z,3.70
2019-03-13T10:11:22.510Z,3.60
2019-03-13T10:14:01.141Z,3.43
2019-03-13T10:16:52.944Z,3.23
2019-03-13T10:19:30.392Z,3.83
2019-03-13T10:22:08.240Z,4.07
2019-03-13T10:24:56.543Z,3.43
2019-03-13T10:27:34.386Z,4.33
2019-03-13T10:30:19.835Z,4.07
2019-03-13T10:33:13.081Z,3.53
2019-03-13T10:36:09.482Z,4.17
2019-03-13T10:39:07.560Z,3.43
2019-03-13T10:42:05.924Z,2.90
2019-03-13T10:45:01.181Z,3.20
2019-03-13T10:47:52.364Z,3.90
2019-03-13T10:50:41.713Z,3.43
2019-03-13T10:53:46.570Z,3.23
2019-03-13T10:56:40.092Z,4.30
2019-03-13T10:59:28.860Z,4.30
2019-03-13T11:02:24.361Z,3.63
2019-03-13T11:05:12.666Z,5.10
2019-03-13T11:08:06.556Z,3.97
2019-03-13T11:10:42.537Z,4.33
2019-03-13T11:13:45.600Z,3.50
2019-03-13T11:16:35.342Z,3.70
2019-03-13T11:19:43.441Z,3.53
2019-03-13T11:22:24.656Z,3.27
2019-03-13T11:25:03.451Z,2.50
2019-03-13T11:28:07.606Z,2.43
2019-03-13T11:31:01.336Z,2.63
2019-03-13T11:34:00.030Z,3.17
2019-03-13T11:36:50.344Z,2.80
2019-03-13T11:39:35.637Z,3.57
2019-03-13T11:42:27.273Z,3.27
2019-03-13T11:45:22.767Z,3.40
2019-03-13T11:48:15.501Z,3.40
2019-03-13T11:51:09.352Z,2.57
2019-03-13T11:54:07.057Z,2.63
2019-03-13T11:57:06.739Z,3.30
2019-03-13T11:59:47.527Z,3.60
2019-03-13T12:02:46.161Z,3.33
2019-03-13T12:05:25.441Z,4.03
2019-03-13T12:08:06.554Z,2.57
2019-03-13T12:10:47.015Z,3.90
2019-03-13T12:13:45.287Z,2.57
2019-03-13T12:16:44.792Z,3.27
2019-03-13T12:19:38.105Z,3.37
2019-03-13T12:22:22.796Z,3.70
2019-03-13T12:25:14.363Z,3.17
2019-03-13T12:27:59.727Z,3.93
2019-03-13T12:30:49.785Z,4.13
2019-03-13T12:33:30.457Z,4.17
2019-03-13T12:36:09.335Z,3.07
2019-03-13T12:39:00.268Z,3.57
2019-03-13T12:41:51.928Z,3.27
2019-03-13T12:44:43.366Z,3.10
2019-03-13T12:47:27.820Z,3.33
2019-03-13T12:50:26.262Z,3.53
2019-03-13T12:53:14.712Z,3.50
2019-03-13T12:56:04.736Z,3.63
2019-03-13T12:59:01.194Z,3.67
2019-03-13T13:02:03.461Z,3.33
2019-03-13T13:04:59.213Z,3.13
2019-03-13T13:07:47.081Z,3.70
2019-03-13T13:10:42.661Z,3.83
2019-03-13T13:13:33.582Z,3.30
2019-03-13T13:16:31.107Z,3.23
2019-03-13T13:18:58.941Z,3.07
2019-03-13T13:21:29.362Z,3.30
2019-03-13T13:23:59.940Z,4.60
2019-03-13T13:26:31.438Z,3.77
2019-03-13T13:29:03.967Z,4.13
2019-03-13T13:31:35.884Z,3.50
2019-03-13T13:34:07.362Z,3.90
2019-03-13T13:36:38.094Z,3.60
2019-03-13T13:39:09.693Z,3.10
2019-03-13T13:41:42.073Z,3.27
2019-03-13T13:44:16.310Z,3.13
2019-03-13T13:46:47.988Z,2.43
2019-03-13T13:49:18.671Z,2.67
2019-03-13T13:51:49.706Z,2.43
2019-03-13T13:54:23.951Z,3.10
2019-03-13T13:56:54.726Z,2.73
2019-03-13T13:59:25.552Z,3.43
2019-03-13T14:01:56.286Z,3.40
2019-03-13T14:04:26.953Z,4.20
2019-03-13T14:06:57.802Z,4.27
2019-03-13T14:09:29.108Z,3.63
2019-03-13T14:11:59.691Z,4.07
2019-03-13T14:14:31.782Z,3.40
2019-03-13T14:17:03.141Z,3.40
2019-03-13T14:19:34.877Z,3.70
2019-03-13T14:22:05.897Z,2.90
2019-03-13T14:24:36.791Z,3.33
2019-03-13T14:27:14.441Z,2.80
2019-03-13T14:29:43.558Z,2.57
2019-03-13T14:32:14.151Z,2.43
2019-03-13T14:34:46.822Z,2.90
2019-03-13T14:37:18.267Z,2.87
2019-03-13T14:39:49.098Z,2.73
2019-03-13T14:42:22.816Z,3.13
2019-03-13T14:44:54.231Z,2.90
2019-03-13T14:47:24.826Z,2.93
2019-03-13T14:49:55.623Z,4.53
2019-03-13T14:52:26.869Z,3.27
2019-03-13T14:54:59.561Z,3.60
2019-03-13T14:57:33.036Z,3.97
2019-03-13T15:00:05.791Z,3.50
2019-03-13T15:02:37.467Z,3.53
2019-03-13T15:05:09.579Z,3.87
2019-03-13T15:07:42.993Z,3.13
2019-03-13T15:10:14.463Z,4.20
2019-03-13T15:12:45.349Z,3.67
2019-03-13T15:15:18.602Z,2.87
2019-03-13T15:17:49.132Z,3.13
2019-03-13T15:20:20.146Z,3.27
2019-03-13T15:22:52.558Z,3.30
2019-03-13T15:25:23.809Z,3.53
2019-03-13T15:27:58.473Z,3.30
2019-03-13T15:30:30.763Z,3.50
2019-03-13T15:33:01.927Z,4.63
2019-03-13T15:35:33.636Z,5.20
2019-03-13T15:38:06.107Z,4.07
2019-03-13T15:40:37.908Z,4.57
2019-03-13T15:43:09.039Z,4.47
2019-03-13T15:45:42.727Z,4.73
2019-03-13T15:48:16.419Z,4.50
2019-03-13T15:51:23.707Z,4.30
2019-03-13T15:53:55.102Z,3.67
2019-03-13T15:56:26.391Z,4.10
2019-03-13T15:58:57.348Z,4.53
2019-03-13T16:01:28.552Z,3.53
2019-03-13T16:04:00.323Z,4.13
2019-03-13T16:06:37.352Z,4.30
2019-03-13T16:09:09.428Z,4.20
2019-03-13T16:11:42.884Z,4.67
2019-03-13T16:14:15.812Z,4.70
2019-03-13T16:16:48.485Z,3.60
2019-03-13T16:19:19.849Z,3.90
2019-03-13T16:21:50.989Z,3.47
2019-03-13T16:24:24.262Z,3.07
2019-03-13T16:26:58.028Z,5.53
2019-03-13T16:29:31.547Z,10.30
2019-03-13T16:32:02.314Z,7.97
2019-03-13T16:34:33.692Z,2.93
2019-03-13T16:37:08.458Z,4.53
2019-03-13T16:39:39.242Z,2.50
2019-03-13T16:42:11.583Z,3.17
2019-03-13T16:44:43.047Z,2.60
2019-03-13T16:47:14.583Z,3.67
2019-03-13T16:49:45.526Z,3.70
2019-03-13T16:52:16.769Z,3.43
2019-03-13T16:54:47.532Z,4.13
2019-03-13T16:57:18.988Z,2.97
2019-03-13T17:00:00.052Z,3.10
2019-03-13T17:02:25.120Z,2.37
2019-03-13T17:04:55.847Z,2.40
2019-03-13T17:07:26.433Z,2.80
2019-03-13T17:09:56.981Z,3.30
2019-03-13T17:12:27.617Z,2.47
2019-03-13T17:14:59.303Z,2.47
2019-03-13T17:17:31.083Z,2.50
2019-03-13T17:20:02.023Z,3.23
2019-03-13T17:22:35.321Z,3.40
2019-03-13T17:25:06.616Z,2.87
2019-03-13T17:27:37.218Z,4.00
2019-03-13T17:30:10.262Z,4.27
2019-03-13T17:32:41.534Z,3.10
2019-03-13T17:35:13.042Z,4.30
2019-03-13T17:37:50.649Z,3.43
2019-03-13T17:40:23.773Z,4.90
2019-03-13T17:43:01.263Z,3.43
2019-03-13T17:45:33.494Z,3.73
2019-03-13T17:48:12.778Z,3.13
2019-03-13T17:50:44.892Z,4.13
2019-03-13T17:53:20.705Z,4.57
2019-03-13T17:55:51.952Z,4.03
2019-03-13T17:58:23.649Z,4.97
2019-03-13T18:00:54.770Z,4.07
2019-03-13T18:03:25.593Z,4.97
2019-03-13T18:05:56.554Z,2.87
2019-03-13T18:08:34.314Z,3.73
2019-03-13T18:11:04.798Z,3.03
2019-03-13T18:13:35.507Z,3.03
2019-03-13T18:16:06.717Z,3.00
2019-03-13T18:18:37.326Z,4.17
2019-03-13T18:21:08.387Z,5.40
2019-03-13T18:23:38.989Z,3.97
2019-03-13T18:26:09.999Z,3.87
2019-03-13T18:28:40.960Z,3.60
2019-03-13T18:31:14.662Z,3.83
2019-03-13T18:33:45.427Z,3.70
2019-03-13T18:36:16.188Z,4.10
2019-03-13T18:38:46.901Z,5.10
2019-03-13T18:41:23.307Z,4.53
2019-03-13T18:43:54.209Z,4.13
2019-03-13T18:46:25.274Z,3.37
2019-03-13T18:48:56.228Z,3.37
2019-03-13T18:51:27.008Z,3.20
2019-03-13T18:53:57.739Z,4.70
2019-03-13T18:56:28.354Z,4.67
2019-03-13T18:58:59.127Z,5.17
2019-03-13T19:01:29.891Z,4.47
2019-03-13T19:04:00.737Z,5.87
2019-03-13T19:06:31.514Z,5.90
2019-03-13T19:09:03.174Z,5.93
2019-03-13T19:11:35.517Z,4.73
2019-03-13T19:14:06.201Z,5.43
2019-03-13T19:16:37.691Z,5.17
2019-03-13T19:19:08.743Z,5.97
2019-03-13T19:21:40.327Z,4.33
2019-03-13T19:24:14.054Z,4.47
2019-03-13T19:26:52.938Z,4.13
2019-03-13T19:29:26.226Z,3.60
2019-03-13T19:31:59.322Z,3.50
2019-03-13T19:34:34.148Z,4.43
2019-03-13T19:37:09.332Z,4.00
2019-03-13T19:39:40.600Z,4.33
2019-03-13T19:42:11.284Z,3.20
2019-03-13T19:44:42.647Z,3.77
2019-03-13T19:47:13.552Z,3.33
2019-03-13T19:49:44.446Z,3.93
2019-03-13T19:52:15.106Z,4.70
2019-03-13T19:54:47.305Z,3.90
2019-03-13T19:57:18.662Z,3.47
2019-03-13T19:59:49.730Z,3.23
2019-03-13T20:02:20.778Z,2.87
2019-03-13T20:04:51.944Z,4.37
2019-03-13T20:07:23.131Z,3.67
2019-03-13T20:09:55.027Z,3.93
2019-03-13T20:12:27.288Z,3.93
2019-03-13T20:14:59.360Z,3.23
2019-03-13T20:17:30.223Z,3.83
2019-03-13T20:20:02.290Z,2.90
2019-03-13T20:22:32.953Z,3.80
2019-03-13T20:25:07.217Z,4.23
2019-03-13T20:27:38.131Z,4.17
2019-03-13T20:30:15.818Z,3.27
2019-03-13T20:32:46.942Z,3.60
2019-03-13T20:35:17.789Z,3.53
2019-03-13T20:37:48.642Z,3.20
2019-03-13T20:40:21.455Z,3.90
2019-03-13T20:42:52.683Z,2.83
2019-03-13T20:45:23.922Z,4.37
2019-03-13T20:47:54.674Z,3.17
2019-03-13T20:50:36.693Z,3.57
2019-03-13T20:52:59.294Z,3.40
2019-03-13T20:55:29.952Z,3.80
2019-03-13T20:58:00.465Z,3.70
2019-03-13T21:00:35.349Z,4.20
2019-03-13T21:03:06.688Z,4.73
2019-03-13T21:05:37.772Z,4.13
2019-03-13T21:08:56.379Z,3.97
2019-03-13T21:11:27.055Z,4.70
2019-03-13T21:13:57.478Z,4.53
2019-03-13T21:16:27.865Z,4.07
2019-03-13T21:19:00.104Z,4.70
2019-03-13T21:21:30.775Z,4.77
2019-03-13T21:24:01.345Z,5.13
2019-03-13T21:26:32.035Z,5.43
2019-03-13T21:29:02.718Z,3.87
2019-03-13T21:31:33.557Z,3.60
2019-03-13T21:34:04.230Z,5.47
2019-03-13T21:36:34.913Z,4.10
2019-03-13T21:39:06.795Z,4.33
2019-03-13T21:41:40.638Z,5.00
2019-03-13T21:44:11.261Z,4.53
2019-03-13T21:46:42.291Z,4.70
2019-03-13T21:49:12.631Z,4.27
2019-03-13T21:51:43.381Z,4.43
2019-03-13T21:54:14.156Z,3.57
2019-03-13T21:56:44.701Z,4.50
2019-03-13T21:59:15.298Z,5.13
2019-03-13T22:01:45.973Z,6.17
2019-03-13T22:04:24.155Z,4.10
2019-03-13T22:06:48.656Z,4.03
2019-03-13T22:09:19.204Z,4.43
2019-03-13T22:11:49.960Z,5.30
2019-03-13T22:14:22.310Z,5.23
2019-03-13T22:16:52.899Z,4.83
2019-03-13T22:19:23.360Z,3.97
2019-03-13T22:21:54.005Z,4.20
2019-03-13T22:24:25.006Z,3.67
2019-03-13T22:26:55.532Z,3.50
2019-03-13T22:29:26.190Z,4.83
2019-03-13T22:31:56.580Z,4.53
2019-03-13T22:34:27.162Z,4.37
2019-03-13T22:36:57.743Z,4.43
2019-03-13T22:39:28.378Z,5.00
2019-03-13T22:41:58.775Z,4.47
2019-03-13T22:44:29.398Z,4.43
2019-03-13T22:46:59.866Z,4.30
2019-03-13T22:49:30.397Z,6.00
2019-03-13T22:52:01.227Z,4.20
2019-03-13T22:54:31.910Z,5.40
2019-03-13T22:57:02.595Z,5.37
2019-03-13T22:59:33.148Z,5.03
2019-03-13T23:02:04.179Z,3.43
2019-03-13T23:04:36.210Z,3.90
2019-03-13T23:07:07.500Z,4.60
2019-03-13T23:09:38.080Z,2.93
2019-03-13T23:12:08.700Z,3.87
2019-03-13T23:14:40.565Z,3.50
2019-03-13T23:17:11.105Z,2.93
2019-03-13T23:19:41.705Z,4.63
2019-03-13T23:22:12.184Z,6.17
2019-03-13T23:24:43.034Z,4.20
2019-03-13T23:27:13.375Z,3.93
2019-03-13T23:29:46.793Z,5.63
2019-03-13T23:32:17.259Z,4.67
2019-03-13T23:34:48.110Z,4.80
2019-03-13T23:37:18.565Z,4.17
2019-03-13T23:39:49.147Z,3.87
2019-03-13T23:42:19.930Z,4.90
2019-03-13T23:44:50.535Z,4.50
2019-03-13T23:47:20.955Z,4.17
2019-03-13T23:49:51.505Z,5.10
2019-03-13T23:52:22.170Z,6.10
2019-03-13T23:54:52.649Z,5.07
2019-03-13T23:57:23.309Z,3.63
2019-03-13T23:59:53.759Z,4.13
